createdAt,value
2019-05-09T19:47:27.397Z,66.75
2019-05-09T19:48:27.162Z,67.49
2019-05-09T19:49:27.147Z,67.69
2019-05-09T19:50:27.151Z,67.82
2019-05-09T19:51:27.130Z,67.59
2019-05-09T19:52:37.963Z,67.42
2019-05-09T19:53:28.102Z,67.82
2019-05-09T19:54:34.922Z,67.69
2019-05-09T19:55:27.114Z,67.72
2019-05-09T19:56:27.091Z,67.42
2019-05-09T19:57:27.105Z,68.02
2019-05-09T19:58:27.059Z,67.82
2019-05-09T19:59:27.084Z,67.32
2019-05-09T20:00:27.027Z,67.11
2019-05-09T20:01:27.018Z,67.32
2019-05-09T20:02:27.006Z,67.32
2019-05-09T20:03:27.010Z,67.22
2019-05-09T20:04:26.996Z,67.18
2019-05-09T20:05:26.982Z,66.50
2019-05-09T20:06:26.970Z,66.38
2019-05-09T20:07:26.955Z,66.38
2019-05-09T20:08:26.968Z,66.17
2019-05-09T20:09:26.934Z,66.67
2019-05-09T20:10:26.947Z,66.07
2019-05-09T20:11:26.915Z,66.30
2019-05-09T20:12:26.904Z,65.77
2019-05-09T20:13:26.909Z,65.67
2019-05-09T20:14:26.883Z,65.87
2019-05-09T20:15:26.869Z,65.87
2019-05-09T20:16:26.862Z,66.00
2019-05-09T20:17:26.862Z,66.17
2019-05-09T20:18:26.831Z,65.47
2019-05-09T20:19:26.822Z,66.07
2019-05-09T20:20:26.823Z,65.06
2019-05-09T20:21:26.814Z,65.06
2019-05-09T20:22:26.795Z,64.86
2019-05-09T20:23:26.790Z,64.99
2019-05-09T20:24:26.776Z,64.58
2019-05-09T20:25:26.786Z,64.65
2019-05-09T20:26:26.768Z,64.79
2019-05-09T20:27:26.750Z,64.28
2019-05-09T20:28:26.733Z,64.69
2019-05-09T20:29:29.934Z,64.69
2019-05-09T20:30:26.702Z,64.48
2019-05-09T20:31:26.696Z,64.48
2019-05-09T20:32:26.693Z,64.58
2019-05-09T20:33:26.700Z,64.58
2019-05-09T20:34:26.661Z,64.58
2019-05-09T20:35:26.660Z,64.69
2019-05-09T20:36:26.661Z,64.07
2019-05-09T20:37:26.634Z,63.98
2019-05-09T20:38:26.633Z,64.69
2019-05-09T20:39:26.617Z,63.87
2019-05-09T20:40:26.611Z,64.79
2019-05-09T20:41:26.583Z,64.69
2019-05-09T20:42:26.578Z,64.69
2019-05-09T20:43:26.580Z,64.69
2019-05-09T20:44:26.594Z,64.79
2019-05-09T20:45:26.547Z,64.58
2019-05-09T20:46:26.530Z,64.58
2019-05-09T20:47:26.517Z,64.79
2019-05-09T20:48:26.512Z,65.50
2019-05-09T20:49:26.506Z,65.70
2019-05-09T20:50:26.493Z,65.59
2019-05-09T20:51:26.473Z,65.80
2019-05-09T20:52:26.465Z,65.39
2019-05-09T20:53:26.462Z,65.90
2019-05-09T20:54:26.449Z,65.90
2019-05-09T20:55:26.438Z,65.09
2019-05-09T20:56:26.419Z,65.70
2019-05-09T20:57:26.418Z,65.59
2019-05-09T20:58:26.397Z,65.59
2019-05-09T20:59:26.392Z,65.39
2019-05-09T21:00:26.416Z,65.59
2019-05-09T21:01:26.365Z,66.00
2019-05-09T21:02:26.355Z,66.20
2019-05-09T21:03:26.348Z,65.59
2019-05-09T21:04:26.340Z,66.13
2019-05-09T21:05:26.327Z,65.53
2019-05-09T21:06:26.328Z,66.54
2019-05-09T21:07:26.299Z,66.24
2019-05-09T21:08:26.294Z,66.54
2019-05-09T21:09:26.283Z,66.84
2019-05-09T21:10:26.288Z,67.25
2019-05-09T21:11:26.270Z,67.05
2019-05-09T21:12:26.244Z,67.35
2019-05-09T21:13:26.247Z,67.65
2019-05-09T21:14:26.223Z,67.14
2019-05-09T21:15:26.226Z,67.45
2019-05-09T21:16:26.212Z,66.94
2019-05-09T21:17:26.196Z,67.01
2019-05-09T21:18:26.206Z,67.11
2019-05-09T21:19:26.175Z,67.14
2019-05-09T21:20:26.216Z,67.14
2019-05-09T21:21:26.164Z,67.25
2019-05-09T21:22:26.144Z,67.25
2019-05-09T21:23:26.132Z,67.25
2019-05-09T21:24:26.120Z,67.25
2019-05-09T21:25:26.103Z,67.65
2019-05-09T21:26:26.101Z,67.35
2019-05-09T21:27:26.088Z,67.28
2019-05-09T21:28:26.073Z,67.14
2019-05-09T21:29:26.064Z,67.08
2019-05-09T21:30:26.059Z,67.68
2019-05-09T21:31:26.074Z,67.18
2019-05-09T21:32:26.028Z,67.28
2019-05-09T21:33:26.027Z,67.79
2019-05-09T21:34:26.011Z,67.58
2019-05-09T21:35:26.006Z,67.68
2019-05-09T21:36:25.983Z,67.68
2019-05-09T21:37:26.005Z,67.48
2019-05-09T21:38:25.963Z,67.38
2019-05-09T21:39:25.950Z,67.18
2019-05-09T21:40:25.940Z,67.82
2019-05-09T21:41:25.928Z,67.92
2019-05-09T21:42:25.926Z,68.32
2019-05-09T21:43:25.924Z,68.63
2019-05-09T21:44:25.961Z,68.73
2019-05-09T21:45:25.886Z,68.52
2019-05-09T21:46:25.878Z,68.63
2019-05-09T21:47:25.864Z,68.73
2019-05-09T21:48:25.901Z,68.26
2019-05-09T21:49:25.849Z,68.83
2019-05-09T21:50:25.839Z,68.87
2019-05-09T21:51:25.820Z,69.03
2019-05-09T21:52:25.814Z,69.07
2019-05-09T21:53:39.893Z,69.27
2019-05-09T21:54:26.800Z,69.07
2019-05-09T21:55:25.784Z,68.96
2019-05-09T21:56:25.767Z,69.44
2019-05-09T21:57:25.761Z,69.03
2019-05-09T21:58:25.779Z,69.68
2019-05-09T21:59:25.739Z,69.57
2019-05-09T22:00:25.731Z,69.78
2019-05-09T22:01:25.724Z,70.08
2019-05-09T22:02:25.704Z,70.08
2019-05-09T22:03:25.699Z,70.08
2019-05-09T22:04:25.695Z,69.78
2019-05-09T22:05:25.677Z,69.98
2019-05-09T22:06:25.665Z,70.28
2019-05-09T22:07:25.649Z,70.28
2019-05-09T22:08:25.649Z,70.18
2019-05-09T22:09:25.668Z,70.28
2019-05-09T22:10:25.621Z,70.59
2019-05-09T22:11:25.610Z,70.48
2019-05-09T22:12:25.595Z,70.48
2019-05-09T22:13:25.584Z,70.92
2019-05-09T22:14:25.579Z,70.72
2019-05-09T22:15:25.582Z,70.92
2019-05-09T22:16:25.564Z,71.03
2019-05-09T22:17:25.547Z,71.13
2019-05-09T22:18:25.535Z,71.23
2019-05-09T22:19:25.535Z,71.23
2019-05-09T22:20:25.534Z,71.53
2019-05-09T22:21:25.504Z,71.84
2019-05-09T22:22:25.494Z,71.53
2019-05-09T22:23:25.478Z,71.88
2019-05-09T22:24:25.472Z,71.44
2019-05-09T22:25:25.457Z,71.73
2019-05-09T22:26:25.528Z,71.67
2019-05-09T22:27:25.440Z,72.38
2019-05-09T22:28:25.425Z,72.28
2019-05-09T22:29:25.419Z,72.08
2019-05-09T22:30:25.404Z,72.69
2019-05-09T22:31:25.408Z,72.48
2019-05-09T22:32:25.392Z,72.89
2019-05-09T22:33:25.376Z,72.58
2019-05-09T22:34:25.383Z,72.69
2019-05-09T22:35:25.364Z,72.38
2019-05-09T22:36:25.379Z,72.17
2019-05-09T22:37:25.329Z,72.08
2019-05-09T22:38:25.323Z,72.69
2019-05-09T22:39:25.312Z,72.78
2019-05-09T22:40:25.310Z,72.69
2019-05-09T22:41:25.287Z,73.13
2019-05-09T22:42:25.290Z,73.22
2019-05-09T22:43:25.272Z,72.72
2019-05-09T22:44:25.262Z,73.22
2019-05-09T22:45:25.251Z,73.13
2019-05-09T22:46:25.256Z,73.53
2019-05-09T22:47:25.229Z,73.46
2019-05-09T22:48:25.214Z,73.02
2019-05-09T22:49:25.202Z,73.63
2019-05-09T22:50:25.200Z,73.74
2019-05-09T22:51:25.185Z,73.33
2019-05-09T22:52:25.187Z,73.83
2019-05-09T22:53:25.167Z,73.63
2019-05-09T22:54:25.154Z,73.67
2019-05-09T22:55:25.143Z,73.57
2019-05-09T22:56:25.138Z,73.36
2019-05-09T22:57:25.124Z,73.46
2019-05-09T22:58:25.131Z,73.46
2019-05-09T22:59:25.102Z,73.57
2019-05-09T23:00:25.090Z,73.46
2019-05-09T23:01:25.072Z,73.16
2019-05-09T23:02:25.078Z,73.36
2019-05-09T23:03:25.065Z,73.77
2019-05-09T23:04:25.049Z,73.77
2019-05-09T23:05:25.037Z,73.97
2019-05-09T23:06:25.026Z,74.48
2019-05-09T23:07:25.016Z,73.97
2019-05-09T23:08:24.998Z,74.92
2019-05-09T23:09:24.995Z,74.88
2019-05-09T23:10:24.985Z,74.82
2019-05-09T23:11:24.971Z,74.82
2019-05-09T23:12:24.990Z,74.21
2019-05-09T23:13:24.945Z,74.52
2019-05-09T23:14:24.933Z,74.92
2019-05-09T23:15:24.933Z,75.02
2019-05-09T23:16:24.924Z,74.82
2019-05-09T23:17:24.907Z,74.82
2019-05-09T23:18:24.904Z,75.23
2019-05-09T23:19:24.886Z,74.92
2019-05-09T23:20:24.874Z,75.02
2019-05-09T23:21:24.859Z,74.92
2019-05-09T23:22:24.855Z,74.92
2019-05-09T23:23:24.849Z,75.02
2019-05-09T23:24:28.434Z,75.23
2019-05-09T23:25:24.820Z,75.23
2019-05-09T23:26:24.826Z,75.09
2019-05-09T23:27:24.799Z,75.02
2019-05-09T23:28:24.798Z,74.82
2019-05-09T23:29:24.809Z,75.23
2019-05-09T23:30:24.764Z,75.43
2019-05-09T23:31:24.755Z,75.23
2019-05-09T23:32:24.745Z,75.67
2019-05-09T23:33:24.729Z,75.53
2019-05-09T23:34:24.726Z,75.57
2019-05-09T23:35:24.717Z,75.77
2019-05-09T23:36:24.704Z,75.53
2019-05-09T23:37:24.697Z,75.94
2019-05-09T23:38:24.676Z,75.77
2019-05-09T23:39:24.686Z,76.14
2019-05-09T23:40:24.661Z,76.14
2019-05-09T23:41:24.651Z,76.34
2019-05-09T23:42:24.634Z,76.34
2019-05-09T23:43:24.632Z,76.55
2019-05-09T23:44:24.650Z,76.45
2019-05-09T23:45:24.607Z,76.59
2019-05-09T23:46:24.590Z,76.18
2019-05-09T23:47:24.583Z,76.59
2019-05-09T23:48:24.575Z,76.34
2019-05-09T23:49:24.558Z,75.94
2019-05-09T23:50:24.555Z,76.04
2019-05-09T23:51:24.542Z,75.73
2019-05-09T23:52:24.525Z,75.73
2019-05-09T23:53:24.514Z,75.63
2019-05-09T23:54:24.505Z,75.63
2019-05-09T23:55:24.500Z,75.53
2019-05-09T23:56:24.483Z,75.63
2019-05-09T23:57:24.472Z,75.63
2019-05-09T23:58:24.465Z,75.63
2019-05-09T23:59:24.457Z,75.73
